sensor_id;sensor_type;location;lat;lon;timestamp;pressure;altitude;pressure_sealevel;temperature;humidity
59053;BME280;44843;44.728;10.396;2023-07-09T00:01:18;100911.00;;;24.66;100.00
59053;BME280;44843;44.728;10.396;2023-07-09T00:03:47;100910.31;;;24.73;100.00
59053;BME280;44843;44.728;10.396;2023-07-09T00:06:19;100907.31;;;24.67;100.00
59053;BME280;44843;44.728;10.396;2023-07-09T00:08:46;100907.66;;;24.64;100.00
59053;BME280;44843;44.728;10.396;2023-07-09T00:11:14;100911.81;;;24.75;100.00
59053;BME280;44843;44.728;10.396;2023-07-09T00:13:39;100904.44;;;24.85;100.00
59053;BME280;44843;44.728;10.396;2023-07-09T00:16:15;100903.47;;;24.86;100.00
59053;BME280;44843;44.728;10.396;2023-07-09T00:18:40;100904.13;;;24.88;100.00
59053;BME280;44843;44.728;10.396;2023-07-09T00:21:06;100906.28;;;24.93;100.00
59053;BME280;44843;44.728;10.396;2023-07-09T00:23:31;100908.44;;;24.81;100.00
59053;BME280;44843;44.728;10.396;2023-07-09T00:25:56;100906.97;;;24.79;100.00
59053;BME280;44843;44.728;10.396;2023-07-09T00:28:22;100906.81;;;24.80;100.00
59053;BME280;44843;44.728;10.396;2023-07-09T00:30:48;100904.47;;;24.77;100.00
59053;BME280;44843;44.728;10.396;2023-07-09T00:33:15;100906.66;;;24.74;100.00
59053;BME280;44843;44.728;10.396;2023-07-09T00:35:45;100901.47;;;24.64;100.00
59053;BME280;44843;44.728;10.396;2023-07-09T00:38:21;100904.50;;;24.53;100.00
59053;BME280;44843;44.728;10.396;2023-07-09T00:41:02;100908.16;;;24.43;100.00
59053;BME280;44843;44.728;10.396;2023-07-09T00:43:30;100908.81;;;24.45;100.00
59053;BME280;44843;44.728;10.396;2023-07-09T00:48:57;100918.19;;;24.50;100.00
59053;BME280;44843;44.728;10.396;2023-07-09T00:51:25;100921.81;;;24.49;100.00
59053;BME280;44843;44.728;10.396;2023-07-09T00:53:54;100918.13;;;24.41;100.00
59053;BME280;44843;44.728;10.396;2023-07-09T00:56:33;100922.97;;;24.46;100.00
59053;BME280;44843;44.728;10.396;2023-07-09T00:59:05;100923.16;;;24.53;100.00
59053;BME280;44843;44.728;10.396;2023-07-09T01:01:33;100916.84;;;24.54;100.00
59053;BME280;44843;44.728;10.396;2023-07-09T01:04:00;100912.16;;;24.64;100.00
59053;BME280;44843;44.728;10.396;2023-07-09T01:06:36;100910.16;;;24.66;100.00
59053;BME280;44843;44.728;10.396;2023-07-09T01:09:03;100915.50;;;24.50;100.00
59053;BME280;44843;44.728;10.396;2023-07-09T01:11:28;100921.16;;;24.55;100.00
59053;BME280;44843;44.728;10.396;2023-07-09T01:13:58;100905.00;;;24.64;100.00
59053;BME280;44843;44.728;10.396;2023-07-09T01:16:27;100916.81;;;24.70;100.00
59053;BME280;44843;44.728;10.396;2023-07-09T01:18:53;100920.81;;;24.74;100.00
59053;BME280;44843;44.728;10.396;2023-07-09T01:21:19;100917.16;;;24.67;100.00
59053;BME280;44843;44.728;10.396;2023-07-09T01:23:46;100921.00;;;24.56;100.00
59053;BME280;44843;44.728;10.396;2023-07-09T01:26:15;100921.31;;;24.61;100.00
59053;BME280;44843;44.728;10.396;2023-07-09T01:28:41;100923.66;;;24.48;100.00
59053;BME280;44843;44.728;10.396;2023-07-09T01:31:10;100920.47;;;24.36;100.00
59053;BME280;44843;44.728;10.396;2023-07-09T01:33:37;100917.81;;;24.36;100.00
59053;BME280;44843;44.728;10.396;2023-07-09T01:36:05;100910.13;;;24.33;100.00
59053;BME280;44843;44.728;10.396;2023-07-09T01:38:32;100910.31;;;24.23;100.00
59053;BME280;44843;44.728;10.396;2023-07-09T01:40:59;100906.16;;;24.13;100.00
59053;BME280;44843;44.728;10.396;2023-07-09T01:43:25;100908.31;;;24.17;100.00
59053;BME280;44843;44.728;10.396;2023-07-09T01:45:51;100911.47;;;24.21;100.00
59053;BME280;44843;44.728;10.396;2023-07-09T01:48:18;100910.00;;;24.18;100.00
59053;BME280;44843;44.728;10.396;2023-07-09T01:50:46;100909.78;;;24.12;100.00
59053;BME280;44843;44.728;10.396;2023-07-09T01:53:12;100904.47;;;24.20;100.00
59053;BME280;44843;44.728;10.396;2023-07-09T01:55:39;100913.16;;;24.30;100.00
59053;BME280;44843;44.728;10.396;2023-07-09T01:58:05;100910.47;;;24.22;100.00
59053;BME280;44843;44.728;10.396;2023-07-09T02:00:33;100907.81;;;24.30;100.00
59053;BME280;44843;44.728;10.396;2023-07-09T02:02:59;100909.16;;;24.34;100.00
59053;BME280;44843;44.728;10.396;2023-07-09T02:05:31;100911.47;;;24.29;100.00
59053;BME280;44843;44.728;10.396;2023-07-09T02:07:57;100910.47;;;24.30;100.00
59053;BME280;44843;44.728;10.396;2023-07-09T02:10:22;100908.50;;;24.32;100.00
59053;BME280;44843;44.728;10.396;2023-07-09T02:12:48;100911.00;;;24.34;100.00
59053;BME280;44843;44.728;10.396;2023-07-09T02:15:14;100910.63;;;24.20;100.00
59053;BME280;44843;44.728;10.396;2023-07-09T02:17:40;100909.47;;;24.15;100.00
59053;BME280;44843;44.728;10.396;2023-07-09T02:20:07;100918.13;;;24.09;100.00
59053;BME280;44843;44.728;10.396;2023-07-09T02:22:33;100914.78;;;24.06;100.00
59053;BME280;44843;44.728;10.396;2023-07-09T02:24:59;100912.78;;;24.00;100.00
59053;BME280;44843;44.728;10.396;2023-07-09T02:27:25;100920.13;;;24.06;100.00
59053;BME280;44843;44.728;10.396;2023-07-09T02:29:51;100911.44;;;23.88;100.00
59053;BME280;44843;44.728;10.396;2023-07-09T02:32:21;100915.09;;;23.87;100.00
59053;BME280;44843;44.728;10.396;2023-07-09T02:34:47;100925.91;;;23.94;100.00
59053;BME280;44843;44.728;10.396;2023-07-09T02:37:22;100923.09;;;23.95;100.00
59053;BME280;44843;44.728;10.396;2023-07-09T02:39:49;100917.59;;;23.89;100.00
59053;BME280;44843;44.728;10.396;2023-07-09T02:42:17;100922.25;;;23.87;100.00
59053;BME280;44843;44.728;10.396;2023-07-09T02:44:43;100929.44;;;23.94;100.00
59053;BME280;44843;44.728;10.396;2023-07-09T02:47:10;100931.75;;;23.97;100.00
59053;BME280;44843;44.728;10.396;2023-07-09T02:49:35;100931.25;;;23.94;100.00
59053;BME280;44843;44.728;10.396;2023-07-09T02:52:01;100929.56;;;23.84;100.00
59053;BME280;44843;44.728;10.396;2023-07-09T02:54:27;100925.91;;;23.94;100.00
59053;BME280;44843;44.728;10.396;2023-07-09T02:56:52;100922.59;;;23.83;100.00
59053;BME280;44843;44.728;10.396;2023-07-09T02:59:18;100923.75;;;23.89;100.00
59053;BME280;44843;44.728;10.396;2023-07-09T03:01:43;100927.91;;;23.92;100.00
59053;BME280;44843;44.728;10.396;2023-07-09T03:04:09;100928.78;;;23.92;100.00
59053;BME280;44843;44.728;10.396;2023-07-09T03:06:35;100934.38;;;23.81;100.00
59053;BME280;44843;44.728;10.396;2023-07-09T03:09:03;100936.88;;;23.82;100.00
59053;BME280;44843;44.728;10.396;2023-07-09T03:11:30;100943.97;;;23.74;100.00
59053;BME280;44843;44.728;10.396;2023-07-09T03:13:57;100945.28;;;23.70;100.00
59053;BME280;44843;44.728;10.396;2023-07-09T03:16:25;100942.63;;;23.61;100.00
59053;BME280;44843;44.728;10.396;2023-07-09T03:18:50;100952.03;;;23.48;100.00
59053;BME280;44843;44.728;10.396;2023-07-09T03:21:16;100948.59;;;23.55;100.00
59053;BME280;44843;44.728;10.396;2023-07-09T03:23:41;100958.38;;;23.55;100.00
59053;BME280;44843;44.728;10.396;2023-07-09T03:26:07;100954.03;;;23.45;100.00
59053;BME280;44843;44.728;10.396;2023-07-09T03:28:32;100955.19;;;23.43;100.00
59053;BME280;44843;44.728;10.396;2023-07-09T03:30:58;100946.91;;;23.54;100.00
59053;BME280;44843;44.728;10.396;2023-07-09T03:33:23;100949.53;;;23.46;100.00
59053;BME280;44843;44.728;10.396;2023-07-09T03:35:52;100949.75;;;23.53;100.00
59053;BME280;44843;44.728;10.396;2023-07-09T03:38:18;100954.22;;;23.52;100.00
59053;BME280;44843;44.728;10.396;2023-07-09T03:40:44;100953.91;;;23.55;100.00
59053;BME280;44843;44.728;10.396;2023-07-09T03:43:10;100951.59;;;23.60;100.00
59053;BME280;44843;44.728;10.396;2023-07-09T03:45:37;100949.94;;;23.68;100.00
59053;BME280;44843;44.728;10.396;2023-07-09T03:48:04;100951.69;;;23.77;100.00
59053;BME280;44843;44.728;10.396;2023-07-09T03:50:30;100953.00;;;23.81;100.00
59053;BME280;44843;44.728;10.396;2023-07-09T03:52:55;100958.66;;;23.78;100.00
59053;BME280;44843;44.728;10.396;2023-07-09T03:55:20;100956.47;;;23.73;100.00
59053;BME280;44843;44.728;10.396;2023-07-09T03:57:46;100965.19;;;23.83;100.00
59053;BME280;44843;44.728;10.396;2023-07-09T04:00:12;100963.19;;;23.94;100.00
59053;BME280;44843;44.728;10.396;2023-07-09T04:02:39;100962.72;;;23.90;100.00
59053;BME280;44843;44.728;10.396;2023-07-09T04:05:06;100969.16;;;23.88;100.00
59053;BME280;44843;44.728;10.396;2023-07-09T04:07:31;100965.50;;;23.80;100.00
59053;BME280;44843;44.728;10.396;2023-07-09T04:09:57;100972.13;;;23.76;100.00
59053;BME280;44843;44.728;10.396;2023-07-09T04:12:22;100969.00;;;23.81;100.00
59053;BME280;44843;44.728;10.396;2023-07-09T04:14:47;100968.00;;;23.82;100.00
59053;BME280;44843;44.728;10.396;2023-07-09T04:17:13;100966.50;;;23.88;100.00
59053;BME280;44843;44.728;10.396;2023-07-09T04:19:38;100970.97;;;23.79;100.00
59053;BME280;44843;44.728;10.396;2023-07-09T04:22:04;100963.38;;;23.92;100.00
59053;BME280;44843;44.728;10.396;2023-07-09T04:24:30;100964.06;;;24.11;100.00
59053;BME280;44843;44.728;10.396;2023-07-09T04:26:57;100958.78;;;24.27;100.00
59053;BME280;44843;44.728;10.396;2023-07-09T04:29:23;100968.44;;;24.36;100.00
59053;BME280;44843;44.728;10.396;2023-07-09T04:31:48;100966.94;;;24.42;100.00
59053;BME280;44843;44.728;10.396;2023-07-09T04:34:14;100969.44;;;24.43;100.00
59053;BME280;44843;44.728;10.396;2023-07-09T04:36:39;100968.31;;;24.62;100.00
59053;BME280;44843;44.728;10.396;2023-07-09T04:39:05;100966.81;;;24.84;100.00
59053;BME280;44843;44.728;10.396;2023-07-09T04:41:31;100966.59;;;25.11;100.00
59053;BME280;44843;44.728;10.396;2023-07-09T04:43:56;100964.72;;;25.27;100.00
59053;BME280;44843;44.728;10.396;2023-07-09T04:46:21;100970.00;;;25.52;100.00
59053;BME280;44843;44.728;10.396;2023-07-09T04:48:47;100977.53;;;25.80;100.00
59053;BME280;44843;44.728;10.396;2023-07-09T04:51:12;100965.22;;;26.56;100.00
59053;BME280;44843;44.728;10.396;2023-07-09T04:53:38;100968.66;;;27.32;99.28
59053;BME280;44843;44.728;10.396;2023-07-09T04:56:03;100964.00;;;27.86;94.48
59053;BME280;44843;44.728;10.396;2023-07-09T04:58:29;100956.09;;;28.64;88.11
59053;BME280;44843;44.728;10.396;2023-07-09T05:00:59;100960.59;;;29.13;83.50
59053;BME280;44843;44.728;10.396;2023-07-09T05:03:25;100960.47;;;29.69;78.95
59053;BME280;44843;44.728;10.396;2023-07-09T05:05:50;100966.59;;;30.25;74.95
59053;BME280;44843;44.728;10.396;2023-07-09T05:08:16;100954.22;;;30.70;71.61
59053;BME280;44843;44.728;10.396;2023-07-09T05:10:43;100974.50;;;30.99;69.76
59053;BME280;44843;44.728;10.396;2023-07-09T05:13:09;100966.84;;;31.03;68.28
59053;BME280;44843;44.728;10.396;2023-07-09T05:15:34;100964.25;;;31.35;65.80
59053;BME280;44843;44.728;10.396;2023-07-09T05:17:59;100977.00;;;31.66;64.81
59053;BME280;44843;44.728;10.396;2023-07-09T05:20:25;100970.81;;;32.04;62.40
59053;BME280;44843;44.728;10.396;2023-07-09T05:22:51;100975.88;;;32.26;61.22
59053;BME280;44843;44.728;10.396;2023-07-09T05:25:16;100975.47;;;32.54;60.02
59053;BME280;44843;44.728;10.396;2023-07-09T05:27:42;100977.25;;;32.60;59.60
59053;BME280;44843;44.728;10.396;2023-07-09T05:30:08;100979.50;;;32.88;58.50
59053;BME280;44843;44.728;10.396;2023-07-09T05:32:34;100980.38;;;33.07;57.78
59053;BME280;44843;44.728;10.396;2023-07-09T05:35:00;100990.06;;;33.33;57.29
59053;BME280;44843;44.728;10.396;2023-07-09T05:37:25;100992.00;;;33.63;56.65
59053;BME280;44843;44.728;10.396;2023-07-09T05:39:51;100991.50;;;34.03;55.62
59053;BME280;44843;44.728;10.396;2023-07-09T05:42:16;100995.97;;;34.51;54.32
59053;BME280;44843;44.728;10.396;2023-07-09T05:44:41;100998.59;;;34.70;53.52
59053;BME280;44843;44.728;10.396;2023-07-09T05:47:07;100990.44;;;35.05;51.75
59053;BME280;44843;44.728;10.396;2023-07-09T05:49:32;100991.88;;;35.60;50.68
59053;BME280;44843;44.728;10.396;2023-07-09T05:51:58;100990.47;;;35.98;49.18
59053;BME280;44843;44.728;10.396;2023-07-09T05:54:23;100995.50;;;36.68;46.96
59053;BME280;44843;44.728;10.396;2023-07-09T05:56:48;100992.63;;;37.14;45.09
59053;BME280;44843;44.728;10.396;2023-07-09T05:59:14;100988.19;;;37.30;45.11
59053;BME280;44843;44.728;10.396;2023-07-09T06:01:39;100995.13;;;37.60;43.99
59053;BME280;44843;44.728;10.396;2023-07-09T06:04:05;101000.06;;;38.17;42.87
59053;BME280;44843;44.728;10.396;2023-07-09T06:06:31;101002.53;;;38.19;40.59
59053;BME280;44843;44.728;10.396;2023-07-09T06:08:56;100991.78;;;38.71;39.80
59053;BME280;44843;44.728;10.396;2023-07-09T06:11:22;100994.75;;;38.70;39.38
59053;BME280;44843;44.728;10.396;2023-07-09T06:13:48;100994.41;;;38.56;39.30
59053;BME280;44843;44.728;10.396;2023-07-09T06:16:14;101008.81;;;38.51;39.34
59053;BME280;44843;44.728;10.396;2023-07-09T06:18:39;101003.13;;;38.26;38.56
59053;BME280;44843;44.728;10.396;2023-07-09T06:21:05;100999.22;;;38.11;39.02
59053;BME280;44843;44.728;10.396;2023-07-09T06:23:32;101008.88;;;37.75;39.82
59053;BME280;44843;44.728;10.396;2023-07-09T06:25:58;101002.13;;;37.56;40.63
59053;BME280;44843;44.728;10.396;2023-07-09T06:28:25;101008.22;;;37.24;40.95
59053;BME280;44843;44.728;10.396;2023-07-09T06:30:51;100996.81;;;37.66;40.74
59053;BME280;44843;44.728;10.396;2023-07-09T06:33:18;101003.69;;;37.29;41.28
59053;BME280;44843;44.728;10.396;2023-07-09T06:35:48;101001.47;;;35.91;43.58
59053;BME280;44843;44.728;10.396;2023-07-09T06:38:14;100997.63;;;33.43;49.85
59053;BME280;44843;44.728;10.396;2023-07-09T06:40:40;101003.81;;;32.31;55.53
59053;BME280;44843;44.728;10.396;2023-07-09T06:43:05;100999.97;;;31.75;58.63
59053;BME280;44843;44.728;10.396;2023-07-09T06:45:30;100997.53;;;31.67;60.96
59053;BME280;44843;44.728;10.396;2023-07-09T06:47:57;101002.78;;;31.49;62.01
59053;BME280;44843;44.728;10.396;2023-07-09T06:50:22;100997.44;;;31.22;64.16
59053;BME280;44843;44.728;10.396;2023-07-09T06:52:47;100998.25;;;31.43;64.11
59053;BME280;44843;44.728;10.396;2023-07-09T06:55:13;100997.81;;;31.32;64.67
59053;BME280;44843;44.728;10.396;2023-07-09T06:57:38;100996.00;;;31.19;61.95
59053;BME280;44843;44.728;10.396;2023-07-09T07:00:04;101006.16;;;31.17;63.91
59053;BME280;44843;44.728;10.396;2023-07-09T07:02:30;101004.66;;;31.35;64.70
59053;BME280;44843;44.728;10.396;2023-07-09T07:04:55;101011.94;;;31.28;62.09
59053;BME280;44843;44.728;10.396;2023-07-09T07:07:21;101009.25;;;31.21;60.78
59053;BME280;44843;44.728;10.396;2023-07-09T07:09:46;101008.59;;;31.32;61.14
59053;BME280;44843;44.728;10.396;2023-07-09T07:12:22;101008.66;;;31.06;63.13
59053;BME280;44843;44.728;10.396;2023-07-09T07:14:48;101008.22;;;31.22;65.58
59053;BME280;44843;44.728;10.396;2023-07-09T07:17:13;101001.88;;;30.90;66.61
59053;BME280;44843;44.728;10.396;2023-07-09T07:19:39;101007.81;;;30.65;67.51
59053;BME280;44843;44.728;10.396;2023-07-09T07:22:05;101008.06;;;30.57;66.37
59053;BME280;44843;44.728;10.396;2023-07-09T07:24:32;101006.19;;;31.04;64.64
59053;BME280;44843;44.728;10.396;2023-07-09T07:26:57;101004.75;;;30.95;64.32
59053;BME280;44843;44.728;10.396;2023-07-09T07:29:23;101007.63;;;31.00;64.69
59053;BME280;44843;44.728;10.396;2023-07-09T07:31:48;101004.72;;;30.82;62.61
59053;BME280;44843;44.728;10.396;2023-07-09T07:34:13;101004.31;;;30.78;61.33
59053;BME280;44843;44.728;10.396;2023-07-09T07:36:39;101007.19;;;31.16;61.48
59053;BME280;44843;44.728;10.396;2023-07-09T07:39:04;101006.94;;;31.45;60.83
59053;BME280;44843;44.728;10.396;2023-07-09T07:41:30;101016.81;;;31.57;58.93
59053;BME280;44843;44.728;10.396;2023-07-09T07:43:55;101011.28;;;31.46;59.12
59053;BME280;44843;44.728;10.396;2023-07-09T07:46:21;101006.94;;;31.38;59.69
59053;BME280;44843;44.728;10.396;2023-07-09T07:48:46;101003.63;;;31.43;58.81
59053;BME280;44843;44.728;10.396;2023-07-09T07:51:11;101003.19;;;31.46;58.42
59053;BME280;44843;44.728;10.396;2023-07-09T07:53:38;101005.69;;;31.40;59.66
59053;BME280;44843;44.728;10.396;2023-07-09T07:56:04;101006.66;;;31.59;59.61
59053;BME280;44843;44.728;10.396;2023-07-09T07:58:30;101003.94;;;31.66;59.72
59053;BME280;44843;44.728;10.396;2023-07-09T08:00:56;101000.50;;;31.39;58.58
59053;BME280;44843;44.728;10.396;2023-07-09T08:03:23;101005.31;;;31.17;61.12
59053;BME280;44843;44.728;10.396;2023-07-09T08:05:49;100995.59;;;31.03;60.34
59053;BME280;44843;44.728;10.396;2023-07-09T08:08:15;100988.16;;;30.78;62.14
59053;BME280;44843;44.728;10.396;2023-07-09T08:10:40;100996.44;;;30.43;62.77
59053;BME280;44843;44.728;10.396;2023-07-09T08:13:06;100982.59;;;30.73;62.19
59053;BME280;44843;44.728;10.396;2023-07-09T08:15:31;100985.06;;;30.74;61.51
59053;BME280;44843;44.728;10.396;2023-07-09T08:17:57;100991.91;;;30.77;61.29
59053;BME280;44843;44.728;10.396;2023-07-09T08:20:23;100985.91;;;30.95;61.81
59053;BME280;44843;44.728;10.396;2023-07-09T08:22:48;100988.16;;;30.78;61.81
59053;BME280;44843;44.728;10.396;2023-07-09T08:25:13;100980.09;;;30.78;58.58
59053;BME280;44843;44.728;10.396;2023-07-09T08:27:39;100987.97;;;30.99;59.17
59053;BME280;44843;44.728;10.396;2023-07-09T08:30:05;100986.28;;;31.18;59.67
59053;BME280;44843;44.728;10.396;2023-07-09T08:32:31;100984.53;;;31.37;59.52
59053;BME280;44843;44.728;10.396;2023-07-09T08:34:56;100988.72;;;31.47;58.02
59053;BME280;44843;44.728;10.396;2023-07-09T08:37:22;100990.34;;;31.41;55.58
59053;BME280;44843;44.728;10.396;2023-07-09T08:39:47;100990.94;;;31.56;56.41
59053;BME280;44843;44.728;10.396;2023-07-09T08:42:29;100984.47;;;31.71;55.93
59053;BME280;44843;44.728;10.396;2023-07-09T08:45:19;100989.41;;;31.74;55.75
59053;BME280;44843;44.728;10.396;2023-07-09T08:48:23;100991.03;;;31.75;56.26
59053;BME280;44843;44.728;10.396;2023-07-09T08:50:50;100992.28;;;31.79;55.78
59053;BME280;44843;44.728;10.396;2023-07-09T08:53:30;100987.28;;;31.82;53.65
59053;BME280;44843;44.728;10.396;2023-07-09T08:55:57;100984.72;;;31.94;55.90
59053;BME280;44843;44.728;10.396;2023-07-09T08:58:26;100988.03;;;32.03;57.22
59053;BME280;44843;44.728;10.396;2023-07-09T09:00:57;100989.69;;;32.04;56.12
59053;BME280;44843;44.728;10.396;2023-07-09T09:03:41;100987.22;;;31.96;56.32
59053;BME280;44843;44.728;10.396;2023-07-09T09:06:14;100987.00;;;32.04;56.54
59053;BME280;44843;44.728;10.396;2023-07-09T09:13:49;100991.47;;;31.78;57.02
59053;BME280;44843;44.728;10.396;2023-07-09T09:16:38;100987.28;;;31.82;56.73
59053;BME280;44843;44.728;10.396;2023-07-09T09:19:26;100986.91;;;31.72;57.17
59053;BME280;44843;44.728;10.396;2023-07-09T09:22:04;100986.13;;;31.65;55.55
59053;BME280;44843;44.728;10.396;2023-07-09T09:27:00;100990.69;;;31.65;54.70
59053;BME280;44843;44.728;10.396;2023-07-09T09:29:26;100980.16;;;31.56;54.23
59053;BME280;44843;44.728;10.396;2023-07-09T09:31:54;100990.38;;;31.34;53.46
59053;BME280;44843;44.728;10.396;2023-07-09T09:34:26;100986.78;;;31.60;55.52
59053;BME280;44843;44.728;10.396;2023-07-09T09:36:52;100987.22;;;31.96;54.77
59053;BME280;44843;44.728;10.396;2023-07-09T09:39:18;100986.41;;;31.95;54.25
59053;BME280;44843;44.728;10.396;2023-07-09T09:41:44;100989.16;;;32.20;54.77
59053;BME280;44843;44.728;10.396;2023-07-09T09:44:24;100993.34;;;32.16;55.37
59053;BME280;44843;44.728;10.396;2023-07-09T09:46:51;100987.63;;;32.06;55.86
59053;BME280;44843;44.728;10.396;2023-07-09T09:49:16;100997.19;;;31.95;55.74
59053;BME280;44843;44.728;10.396;2023-07-09T09:51:44;100989.44;;;31.67;54.69
59053;BME280;44843;44.728;10.396;2023-07-09T09:54:18;100989.88;;;31.64;54.02
59053;BME280;44843;44.728;10.396;2023-07-09T09:56:44;100986.47;;;32.20;53.73
59053;BME280;44843;44.728;10.396;2023-07-09T09:59:20;100992.06;;;31.80;53.52
59053;BME280;44843;44.728;10.396;2023-07-09T10:01:46;100992.75;;;31.69;53.34
59053;BME280;44843;44.728;10.396;2023-07-09T10:04:18;100988.53;;;31.87;52.39
59053;BME280;44843;44.728;10.396;2023-07-09T10:06:49;100983.97;;;31.80;51.40
59053;BME280;44843;44.728;10.396;2023-07-09T10:12:29;100976.47;;;31.89;54.75
59053;BME280;44843;44.728;10.396;2023-07-09T10:20:24;100981.97;;;31.69;55.84
59053;BME280;44843;44.728;10.396;2023-07-09T10:23:03;100985.75;;;31.55;56.50
59053;BME280;44843;44.728;10.396;2023-07-09T10:30:52;100975.50;;;31.77;55.39
59053;BME280;44843;44.728;10.396;2023-07-09T10:36:00;100977.97;;;31.78;55.16
59053;BME280;44843;44.728;10.396;2023-07-09T10:38:56;100980.69;;;31.78;54.20
59053;BME280;44843;44.728;10.396;2023-07-09T10:41:25;100986.59;;;31.94;53.79
59053;BME280;44843;44.728;10.396;2023-07-09T10:46:34;100978.81;;;32.17;53.00
59053;BME280;44843;44.728;10.396;2023-07-09T10:49:02;100972.72;;;32.29;52.58
59053;BME280;44843;44.728;10.396;2023-07-09T10:51:37;100980.66;;;32.23;51.69
59053;BME280;44843;44.728;10.396;2023-07-09T10:54:22;100976.44;;;31.96;51.38
59053;BME280;44843;44.728;10.396;2023-07-09T10:57:08;100972.09;;;32.27;50.11
59053;BME280;44843;44.728;10.396;2023-07-09T10:59:36;100962.31;;;32.32;49.59
59053;BME280;44843;44.728;10.396;2023-07-09T11:02:24;100961.13;;;32.53;50.65
59053;BME280;44843;44.728;10.396;2023-07-09T11:04:55;100967.13;;;32.55;50.33
59053;BME280;44843;44.728;10.396;2023-07-09T11:07:29;100966.91;;;32.57;51.60
59053;BME280;44843;44.728;10.396;2023-07-09T11:09:58;100967.22;;;32.17;51.99
59053;BME280;44843;44.728;10.396;2023-07-09T11:12:36;100965.47;;;31.97;52.85
59053;BME280;44843;44.728;10.396;2023-07-09T11:15:16;100961.25;;;32.08;53.48
59053;BME280;44843;44.728;10.396;2023-07-09T11:17:45;100969.38;;;32.01;51.66
59053;BME280;44843;44.728;10.396;2023-07-09T11:20:23;100968.19;;;31.91;52.95
59053;BME280;44843;44.728;10.396;2023-07-09T11:23:03;100959.63;;;32.00;53.32
59053;BME280;44843;44.728;10.396;2023-07-09T11:25:30;100959.69;;;31.87;54.44
59053;BME280;44843;44.728;10.396;2023-07-09T11:28:05;100958.38;;;32.03;54.80
59053;BME280;44843;44.728;10.396;2023-07-09T11:30:31;100957.34;;;32.04;55.23
59053;BME280;44843;44.728;10.396;2023-07-09T11:35:28;100944.72;;;32.23;54.90
59053;BME280;44843;44.728;10.396;2023-07-09T11:37:54;100953.09;;;32.72;54.22
59053;BME280;44843;44.728;10.396;2023-07-09T11:40:22;100941.00;;;32.24;55.38
59053;BME280;44843;44.728;10.396;2023-07-09T11:42:54;100942.69;;;32.18;55.58
59053;BME280;44843;44.728;10.396;2023-07-09T11:45:24;100943.38;;;32.39;55.73
59053;BME280;44843;44.728;10.396;2023-07-09T11:50:32;100936.41;;;32.56;54.30
59053;BME280;44843;44.728;10.396;2023-07-09T11:53:04;100926.53;;;32.69;53.85
59053;BME280;44843;44.728;10.396;2023-07-09T11:58:08;100929.53;;;32.60;53.56
59053;BME280;44843;44.728;10.396;2023-07-09T12:00:40;100932.28;;;32.54;53.45
59053;BME280;44843;44.728;10.396;2023-07-09T12:03:09;100927.47;;;32.56;53.55
59053;BME280;44843;44.728;10.396;2023-07-09T12:05:37;100924.97;;;32.29;53.49
59053;BME280;44843;44.728;10.396;2023-07-09T12:08:06;100922.16;;;32.42;54.31
59053;BME280;44843;44.728;10.396;2023-07-09T12:10:34;100914.13;;;32.36;52.85
59053;BME280;44843;44.728;10.396;2023-07-09T12:13:01;100921.28;;;32.49;53.55
59053;BME280;44843;44.728;10.396;2023-07-09T12:15:29;100918.13;;;32.58;54.95
59053;BME280;44843;44.728;10.396;2023-07-09T12:18:01;100919.47;;;32.42;54.44
59053;BME280;44843;44.728;10.396;2023-07-09T12:20:34;100913.31;;;32.35;53.64
59053;BME280;44843;44.728;10.396;2023-07-09T12:23:00;100905.47;;;32.27;53.92
59053;BME280;44843;44.728;10.396;2023-07-09T12:25:34;100907.97;;;32.04;53.85
59053;BME280;44843;44.728;10.396;2023-07-09T12:28:00;100905.59;;;32.14;54.69
59053;BME280;44843;44.728;10.396;2023-07-09T12:30:25;100901.47;;;32.11;54.06
59053;BME280;44843;44.728;10.396;2023-07-09T12:32:51;100903.44;;;32.22;53.54
59053;BME280;44843;44.728;10.396;2023-07-09T12:35:19;100899.06;;;32.28;52.80
59053;BME280;44843;44.728;10.396;2023-07-09T12:37:47;100900.34;;;32.26;52.74
59053;BME280;44843;44.728;10.396;2023-07-09T12:40:20;100896.03;;;32.43;51.99
59053;BME280;44843;44.728;10.396;2023-07-09T12:42:47;100893.84;;;32.58;52.66
59053;BME280;44843;44.728;10.396;2023-07-09T12:45:20;100900.88;;;32.59;52.30
59053;BME280;44843;44.728;10.396;2023-07-09T12:47:46;100893.38;;;32.61;51.64
59053;BME280;44843;44.728;10.396;2023-07-09T12:50:36;100889.78;;;32.68;51.22
59053;BME280;44843;44.728;10.396;2023-07-09T12:53:14;100886.19;;;32.74;51.86
59053;BME280;44843;44.728;10.396;2023-07-09T12:55:42;100879.66;;;32.81;52.17
59053;BME280;44843;44.728;10.396;2023-07-09T12:58:11;100871.34;;;32.83;52.00
59053;BME280;44843;44.728;10.396;2023-07-09T13:00:39;100873.06;;;32.96;53.66
59053;BME280;44843;44.728;10.396;2023-07-09T13:03:13;100871.56;;;33.00;52.41
59053;BME280;44843;44.728;10.396;2023-07-09T13:05:38;100865.81;;;32.78;52.21
59053;BME280;44843;44.728;10.396;2023-07-09T13:08:04;100866.69;;;32.72;52.44
59053;BME280;44843;44.728;10.396;2023-07-09T13:10:31;100867.59;;;32.66;52.20
59053;BME280;44843;44.728;10.396;2023-07-09T13:13:01;100870.44;;;32.52;53.10
59053;BME280;44843;44.728;10.396;2023-07-09T13:15:30;100869.22;;;32.67;53.37
59053;BME280;44843;44.728;10.396;2023-07-09T13:18:14;100869.91;;;32.62;51.47